Portada
METAR-TAF:

METAR-TAF

Aeroports :

Samsun, Turquia

latitud: 41-15-15N, longitud: 036-34-03E, altitud: 5 m

Observació

L'informe es va fer fa 1 hora i 8 minuts, a les 09:50 UTC
Vent 4 kt del Sud/Sud-Oest
Temperatura 29°C
Humitat 31%
Pressió 1010 hPa
Visibilitat 10 km o més
sense núvols per sota de 1500 mi sense presència de cumulonimbus.

METAR: LTFH 080950Z 21004KT CAVOK 29/10 Q1010 NOSIG

Hora: 13:58 (10:58 UTC)

Pronòstic

L'informe es va fer fa 3 hores i 18 minuts, a les 07:40 UTC
Pronòstic vàlid del 08 a les 09 UTC al 08 a les 18 UTC
Vent 2 kt amb direcció variable
Visibilitat 10 km o més
sense núvols per sota de 1500 mi sense presència de cumulonimbus.
Evolucionant progressivament
l' 08 a les 12 UTC al 08 a les 15 UTC
Escasses núvols a una alçada de 3600 ft
Cel ennuvolat a una alçada de 10000 ft

TAF: LTFH 080740Z 0809/0818 VRB02KT CAVOK BECMG 0812/0815 FEW036 BKN100

Observacions i pronòstics meteorològics de més de 4000 aeroports (METAR i TAF).

Les estacions disponibles són els punts grocs i vermells al mapa.

Posi el ratolí al punt desitjat per veure el nom de l'estació.

Feu clic per veure les observacions i els pronòstics meteorològics.

Per canviar el mapa: feu clic els botons verds amb una creu de color negre per apropar; al botó verd amb un guió per allunyar la imatge; o en les fletxes verdes per a mapes adjacents.


METAR-TAF: